PWSweather.com
Personal Weather Stations
Station Observations
ITROMSHA6
HarstadNO 9407

HarstadNO 9407

Lat: 68.7814767, Lon: 16.5297091

Elevation: 145

Station Type: Davis Vantage Pro2

High Low Average
Temperature 48.2°F9.0°C 37.0°F2.8°C 41.1°F5.1°C
Dew Point 42.1°F5.6°C 34.3°F1.3°C 37.4°F3.0°C
Winds 20.0 mph 32.2 kmh Calm Calm 5.0 mph WSW8.0 kmh WSW
Wind Gusts 28.0 mph45.1 kmh -- 3.0 mph4.8 kmh
Humidity 91% 72% 87%
Pressure 30.11 in1019.6 mb 30.01 in1016.3 mb -
Precipitation 0.54 in13.7 mm - -
Hour Temp Dew Point Humidity Winds Wind Gusts Pressure Precip Precip Rate Daily Precip Total
12:00 AM 46.2°F7.9°C 38.5°F3.6°C 74% 5.0 mph SW8.0 kmh SW -- 30.01 in1016.3 mb 0.00 in0.0 mm 0.00 in0.0 mm 0.00 in0.0 mm
12:05 AM 46.0°F7.8°C 38.3°F3.5°C 74% 6.0 mph SW9.7 kmh SW 7.0 mph11.3 kmh 30.01 in1016.3 mb 0.00 in0.0 mm 0.00 in0.0 mm 0.00 in0.0 mm
12:10 AM 46.5°F8.1°C 38.7°F3.7°C 74% 6.0 mph WSW9.7 kmh WSW -- 30.01 in1016.3 mb 0.00 in0.0 mm 0.00 in0.0 mm 0.00 in0.0 mm
12:15 AM 47.4°F8.6°C 39.2°F4.0°C 73% 7.0 mph W11.3 kmh W -- 30.01 in1016.3 mb 0.00 in0.0 mm 0.00 in0.0 mm 0.00 in0.0 mm
12:20 AM 47.7°F8.7°C 39.0°F3.9°C 72% 7.0 mph WSW11.3 kmh WSW -- 30.01 in1016.3 mb 0.00 in0.0 mm 0.00 in0.0 mm 0.00 in0.0 mm
12:25 AM 47.6°F8.7°C 39.0°F3.9°C 72% 7.0 mph WSW11.3 kmh WSW -- 30.01 in1016.3 mb 0.00 in0.0 mm 0.00 in0.0 mm 0.00 in0.0 mm
12:30 AM 47.5°F8.6°C 38.8°F3.8°C 72% 3.0 mph WNW4.8 kmh WNW 12.0 mph19.3 kmh 30.02 in1016.6 mb 0.00 in0.0 mm 0.00 in0.0 mm 0.00 in0.0 mm
12:35 AM 47.7°F8.7°C 39.0°F3.9°C 72% 1.0 mph W1.6 kmh W -- 30.02 in1016.6 mb 0.00 in0.0 mm 0.00 in0.0 mm 0.00 in0.0 mm
12:40 AM 47.7°F8.7°C 39.0°F3.9°C 72% 4.0 mph SW6.4 kmh SW -- 30.02 in1016.6 mb 0.00 in0.0 mm 0.00 in0.0 mm 0.00 in0.0 mm
12:45 AM 47.3°F8.5°C 39.0°F3.9°C 73% 2.0 mph WSW3.2 kmh WSW -- 30.02 in1016.6 mb 0.00 in0.0 mm 0.00 in0.0 mm 0.00 in0.0 mm
12:50 AM 47.2°F8.4°C 38.8°F3.8°C 73% 1.0 mph WSW1.6 kmh WSW -- 30.02 in1016.6 mb 0.00 in0.0 mm 0.00 in0.0 mm 0.00 in0.0 mm
12:55 AM 47.2°F8.4°C 38.8°F3.8°C 73% 3.0 mph WSW4.8 kmh WSW 6.0 mph9.7 kmh 30.02 in1016.6 mb 0.00 in0.0 mm 0.00 in0.0 mm 0.00 in0.0 mm
01:00 AM 47.4°F8.6°C 39.6°F4.2°C 74% 2.0 mph WSW3.2 kmh WSW -- 30.02 in1016.6 mb 0.00 in0.0 mm 0.00 in0.0 mm 0.00 in0.0 mm
01:05 AM 47.4°F8.6°C 39.6°F4.2°C 74% Calm Calm -- 30.02 in1016.6 mb 0.00 in0.0 mm 0.00 in0.0 mm 0.00 in0.0 mm
01:10 AM 47.5°F8.6°C 39.6°F4.2°C 74% 1.0 mph SW1.6 kmh SW -- 30.02 in1016.6 mb 0.00 in0.0 mm 0.00 in0.0 mm 0.00 in0.0 mm
01:15 AM 47.7°F8.7°C 39.7°F4.3°C 74% 2.0 mph WSW3.2 kmh WSW -- 30.02 in1016.6 mb 0.00 in0.0 mm 0.00 in0.0 mm 0.00 in0.0 mm
01:20 AM 47.8°F8.8°C 39.9°F4.4°C 74% 5.0 mph WSW8.0 kmh WSW 7.0 mph11.3 kmh 30.02 in1016.6 mb 0.00 in0.0 mm 0.00 in0.0 mm 0.00 in0.0 mm
01:25 AM 47.8°F8.8°C 39.9°F4.4°C 74% 2.0 mph SW3.2 kmh SW -- 30.02 in1016.6 mb 0.00 in0.0 mm 0.00 in0.0 mm 0.00 in0.0 mm
01:30 AM 47.9°F8.8°C 40.3°F4.6°C 75% 5.0 mph SW8.0 kmh SW -- 30.02 in1016.6 mb 0.00 in0.0 mm 0.00 in0.0 mm 0.00 in0.0 mm
01:35 AM 48.0°F8.9°C 40.1°F4.5°C 74% 4.0 mph SW6.4 kmh SW -- 30.02 in1016.6 mb 0.00 in0.0 mm 0.00 in0.0 mm 0.00 in0.0 mm
01:40 AM 48.1°F8.9°C 40.1°F4.5°C 74% 6.0 mph WSW9.7 kmh WSW -- 30.02 in1016.6 mb 0.00 in0.0 mm 0.00 in0.0 mm 0.00 in0.0 mm
01:45 AM 48.1°F8.9°C 40.1°F4.5°C 74% 4.0 mph WSW6.4 kmh WSW 9.0 mph14.5 kmh 30.02 in1016.6 mb 0.00 in0.0 mm 0.00 in0.0 mm 0.00 in0.0 mm
01:50 AM 48.0°F8.9°C 40.5°F4.7°C 75% 4.0 mph SW6.4 kmh SW -- 30.03 in1016.9 mb 0.00 in0.0 mm 0.00 in0.0 mm 0.00 in0.0 mm
01:55 AM 48.0°F8.9°C 40.5°F4.7°C 75% 3.0 mph SW4.8 kmh SW -- 30.03 in1016.9 mb 0.00 in0.0 mm 0.00 in0.0 mm 0.00 in0.0 mm
02:00 AM 48.1°F8.9°C 40.5°F4.7°C 75% 4.0 mph SW6.4 kmh SW -- 30.03 in1016.9 mb 0.00 in0.0 mm 0.00 in0.0 mm 0.00 in0.0 mm
02:05 AM 48.2°F9.0°C 40.6°F4.8°C 75% 6.0 mph SW9.7 kmh SW -- 30.03 in1016.9 mb 0.00 in0.0 mm 0.00 in0.0 mm 0.00 in0.0 mm
02:10 AM 48.2°F9.0°C 40.6°F4.8°C 75% 3.0 mph SW4.8 kmh SW 10.0 mph16.1 kmh 30.03 in1016.9 mb 0.00 in0.0 mm 0.00 in0.0 mm 0.00 in0.0 mm
02:15 AM 48.1°F8.9°C 40.8°F4.9°C 76% 1.0 mph WSW1.6 kmh WSW -- 30.03 in1016.9 mb 0.00 in0.0 mm 0.00 in0.0 mm 0.00 in0.0 mm
02:20 AM 48.1°F8.9°C 40.8°F4.9°C 76% 1.0 mph SSW1.6 kmh SSW -- 30.03 in1016.9 mb 0.00 in0.0 mm 0.00 in0.0 mm 0.00 in0.0 mm
02:25 AM 48.1°F8.9°C 40.8°F4.9°C 76% 5.0 mph SW8.0 kmh SW -- 30.03 in1016.9 mb 0.00 in0.0 mm 0.00 in0.0 mm 0.00 in0.0 mm
02:30 AM 48.0°F8.9°C 41.2°F5.1°C 77% 2.0 mph SW3.2 kmh SW -- 30.04 in1017.3 mb 0.00 in0.0 mm 0.00 in0.0 mm 0.00 in0.0 mm
02:35 AM 47.9°F8.8°C 41.0°F5.0°C 77% 5.0 mph SW8.0 kmh SW 6.0 mph9.7 kmh 30.04 in1017.3 mb 0.00 in0.0 mm 0.00 in0.0 mm 0.00 in0.0 mm
02:40 AM 48.0°F8.9°C 41.2°F5.1°C 77% 4.0 mph WSW6.4 kmh WSW -- 30.04 in1017.3 mb 0.00 in0.0 mm 0.00 in0.0 mm 0.00 in0.0 mm
02:45 AM 48.0°F8.9°C 41.2°F5.1°C 77% 4.0 mph WSW6.4 kmh WSW -- 30.04 in1017.3 mb 0.00 in0.0 mm 0.00 in0.0 mm 0.00 in0.0 mm
02:50 AM 47.9°F8.8°C 41.0°F5.0°C 77% Calm Calm -- 30.04 in1017.3 mb 0.00 in0.0 mm 0.00 in0.0 mm 0.00 in0.0 mm
02:55 AM 47.8°F8.8°C 41.4°F5.2°C 78% 1.0 mph W1.6 kmh W -- 30.04 in1017.3 mb 0.00 in0.0 mm 0.00 in0.0 mm 0.00 in0.0 mm
03:00 AM 47.7°F8.7°C 41.2°F5.1°C 78% Calm Calm 5.0 mph8.0 kmh 30.04 in1017.3 mb 0.00 in0.0 mm 0.00 in0.0 mm 0.00 in0.0 mm
03:05 AM 47.6°F8.7°C 41.2°F5.1°C 78% 7.0 mph W11.3 kmh W -- 30.04 in1017.3 mb 0.00 in0.0 mm 0.00 in0.0 mm 0.00 in0.0 mm
03:10 AM 47.5°F8.6°C 41.4°F5.2°C 79% 3.0 mph W4.8 kmh W -- 30.05 in1017.6 mb 0.00 in0.0 mm 0.00 in0.0 mm 0.00 in0.0 mm
03:15 AM 47.4°F8.6°C 41.5°F5.3°C 80% 2.0 mph NW3.2 kmh NW -- 30.05 in1017.6 mb 0.00 in0.0 mm 0.00 in0.0 mm 0.00 in0.0 mm
03:20 AM 47.2°F8.4°C 41.5°F5.3°C 81% 6.0 mph WSW9.7 kmh WSW -- 30.05 in1017.6 mb 0.00 in0.0 mm 0.00 in0.0 mm 0.00 in0.0 mm
03:25 AM 46.9°F8.3°C 41.7°F5.4°C 82% Calm Calm 12.0 mph19.3 kmh 30.05 in1017.6 mb 0.00 in0.0 mm 0.00 in0.0 mm 0.00 in0.0 mm
03:30 AM 46.7°F8.2°C 41.9°F5.5°C 83% Calm Calm -- 30.05 in1017.6 mb 0.00 in0.0 mm 0.00 in0.0 mm 0.00 in0.0 mm
03:35 AM 46.4°F8.0°C 41.9°F5.5°C 84% 2.0 mph WSW3.2 kmh WSW -- 30.05 in1017.6 mb 0.00 in0.0 mm 0.00 in0.0 mm 0.00 in0.0 mm
03:40 AM 46.1°F7.8°C 41.7°F5.4°C 85% 5.0 mph SW8.0 kmh SW -- 30.06 in1017.9 mb 0.00 in0.0 mm 0.00 in0.0 mm 0.00 in0.0 mm
03:45 AM 45.8°F7.7°C 41.9°F5.5°C 86% 2.0 mph WNW3.2 kmh WNW -- 30.06 in1017.9 mb 0.00 in0.0 mm 0.00 in0.0 mm 0.00 in0.0 mm
03:50 AM 45.6°F7.6°C 42.1°F5.6°C 87% 4.0 mph SW6.4 kmh SW 11.0 mph17.7 kmh 30.06 in1017.9 mb 0.00 in0.0 mm 0.00 in0.0 mm 0.00 in0.0 mm
03:55 AM 45.4°F7.4°C 41.9°F5.5°C 88% 4.0 mph WSW6.4 kmh WSW -- 30.06 in1017.9 mb 0.00 in0.0 mm 0.00 in0.0 mm 0.00 in0.0 mm
04:00 AM 45.3°F7.4°C 41.9°F5.5°C 88% 6.0 mph WSW9.7 kmh WSW -- 30.07 in1018.3 mb 0.00 in0.0 mm 0.00 in0.0 mm 0.00 in0.0 mm
04:05 AM 45.0°F7.2°C 41.5°F5.3°C 88% 2.0 mph WSW3.2 kmh WSW -- 30.07 in1018.3 mb 0.00 in0.0 mm 0.00 in0.0 mm 0.00 in0.0 mm
04:10 AM 44.9°F7.2°C 41.5°F5.3°C 88% 2.0 mph W3.2 kmh W -- 30.07 in1018.3 mb 0.00 in0.0 mm 0.00 in0.0 mm 0.00 in0.0 mm
04:15 AM 44.7°F7.1°C 41.4°F5.2°C 88% 9.0 mph WNW14.5 kmh WNW 12.0 mph19.3 kmh 30.07 in1018.3 mb 0.00 in0.0 mm 0.00 in0.0 mm 0.00 in0.0 mm
04:20 AM 44.6°F7.0°C 41.2°F5.1°C 88% 7.0 mph WSW11.3 kmh WSW -- 30.07 in1018.3 mb 0.00 in0.0 mm 0.00 in0.0 mm 0.00 in0.0 mm
04:25 AM 44.5°F6.9°C 41.2°F5.1°C 88% 6.0 mph WSW9.7 kmh WSW -- 30.07 in1018.3 mb 0.00 in0.0 mm 0.00 in0.0 mm 0.00 in0.0 mm
04:30 AM 44.4°F6.9°C 41.2°F5.1°C 88% 3.0 mph W4.8 kmh W -- 30.07 in1018.3 mb 0.00 in0.0 mm 0.00 in0.0 mm 0.00 in0.0 mm
04:35 AM 44.3°F6.8°C 41.0°F5.0°C 88% 4.0 mph WSW6.4 kmh WSW -- 30.07 in1018.3 mb 0.00 in0.0 mm 0.00 in0.0 mm 0.00 in0.0 mm
04:40 AM 44.3°F6.8°C 41.0°F5.0°C 88% 10.0 mph WSW16.1 kmh WSW 15.0 mph24.1 kmh 30.07 in1018.3 mb 0.00 in0.0 mm 0.00 in0.0 mm 0.00 in0.0 mm
04:45 AM 44.1°F6.7°C 40.8°F4.9°C 88% 6.0 mph SW9.7 kmh SW -- 30.07 in1018.3 mb 0.00 in0.0 mm 0.00 in0.0 mm 0.00 in0.0 mm
04:50 AM 44.1°F6.7°C 40.8°F4.9°C 88% 9.0 mph WSW14.5 kmh WSW -- 30.08 in1018.6 mb 0.00 in0.0 mm 0.00 in0.0 mm 0.00 in0.0 mm
04:55 AM 44.0°F6.7°C 40.8°F4.9°C 88% 4.0 mph SW6.4 kmh SW -- 30.08 in1018.6 mb 0.00 in0.0 mm 0.00 in0.0 mm 0.00 in0.0 mm
05:00 AM 43.9°F6.6°C 40.6°F4.8°C 88% 4.0 mph WSW6.4 kmh WSW -- 30.08 in1018.6 mb 0.00 in0.0 mm 0.00 in0.0 mm 0.00 in0.0 mm
05:05 AM 43.9°F6.6°C 40.6°F4.8°C 88% 4.0 mph W6.4 kmh W 13.0 mph20.9 kmh 30.08 in1018.6 mb 0.00 in0.0 mm 0.00 in0.0 mm 0.00 in0.0 mm
05:10 AM 43.9°F6.6°C 40.6°F4.8°C 88% 2.0 mph WSW3.2 kmh WSW -- 30.08 in1018.6 mb 0.00 in0.0 mm 0.00 in0.0 mm 0.00 in0.0 mm
05:15 AM 43.8°F6.6°C 40.6°F4.8°C 88% 2.0 mph SSW3.2 kmh SSW -- 30.09 in1019.0 mb 0.00 in0.0 mm 0.00 in0.0 mm 0.00 in0.0 mm
05:20 AM 43.7°F6.5°C 40.5°F4.7°C 88% 4.0 mph WSW6.4 kmh WSW -- 30.09 in1019.0 mb 0.00 in0.0 mm 0.00 in0.0 mm 0.00 in0.0 mm
05:25 AM 43.7°F6.5°C 40.5°F4.7°C 88% 3.0 mph SW4.8 kmh SW -- 30.09 in1019.0 mb 0.00 in0.0 mm 0.00 in0.0 mm 0.00 in0.0 mm
05:30 AM 43.6°F6.4°C 40.3°F4.6°C 88% 7.0 mph W11.3 kmh W 11.0 mph17.7 kmh 30.09 in1019.0 mb 0.00 in0.0 mm 0.00 in0.0 mm 0.00 in0.0 mm
05:35 AM 43.5°F6.4°C 40.3°F4.6°C 88% 4.0 mph W6.4 kmh W -- 30.09 in1019.0 mb 0.00 in0.0 mm 0.00 in0.0 mm 0.00 in0.0 mm
05:40 AM 43.3°F6.3°C 40.1°F4.5°C 88% 4.0 mph SW6.4 kmh SW -- 30.08 in1018.6 mb 0.00 in0.0 mm 0.00 in0.0 mm 0.00 in0.0 mm
05:45 AM 43.2°F6.2°C 39.9°F4.4°C 88% 9.0 mph SSW14.5 kmh SSW -- 30.08 in1018.6 mb 0.00 in0.0 mm 0.00 in0.0 mm 0.00 in0.0 mm
05:50 AM 43.2°F6.2°C 39.9°F4.4°C 88% 7.0 mph WSW11.3 kmh WSW -- 30.09 in1019.0 mb 0.00 in0.0 mm 0.00 in0.0 mm 0.00 in0.0 mm
05:55 AM 43.1°F6.2°C 40.1°F4.5°C 89% 7.0 mph SW11.3 kmh SW 13.0 mph20.9 kmh 30.09 in1019.0 mb 0.00 in0.0 mm 0.00 in0.0 mm 0.00 in0.0 mm
06:00 AM 43.1°F6.2°C 39.9°F4.4°C 88% 2.0 mph WNW3.2 kmh WNW -- 30.09 in1019.0 mb 0.00 in0.0 mm 0.00 in0.0 mm 0.00 in0.0 mm
06:05 AM 43.0°F6.1°C 39.7°F4.3°C 88% 6.0 mph SW9.7 kmh SW -- 30.09 in1019.0 mb 0.00 in0.0 mm 0.00 in0.0 mm 0.00 in0.0 mm
06:10 AM 43.0°F6.1°C 39.7°F4.3°C 88% 8.0 mph WSW12.9 kmh WSW -- 30.09 in1019.0 mb 0.00 in0.0 mm 0.00 in0.0 mm 0.00 in0.0 mm
06:15 AM 42.9°F6.1°C 39.7°F4.3°C 88% Calm Calm -- 30.09 in1019.0 mb 0.00 in0.0 mm 0.00 in0.0 mm 0.00 in0.0 mm
06:20 AM 42.9°F6.1°C 39.7°F4.3°C 88% 4.0 mph SW6.4 kmh SW 16.0 mph25.7 kmh 30.09 in1019.0 mb 0.00 in0.0 mm 0.00 in0.0 mm 0.00 in0.0 mm
06:25 AM 42.9°F6.1°C 39.7°F4.3°C 88% 2.0 mph WNW3.2 kmh WNW -- 30.09 in1019.0 mb 0.00 in0.0 mm 0.00 in0.0 mm 0.00 in0.0 mm
06:30 AM 42.8°F6.0°C 39.2°F4.0°C 87% 2.0 mph W3.2 kmh W -- 30.09 in1019.0 mb 0.00 in0.0 mm 0.00 in0.0 mm 0.00 in0.0 mm
06:35 AM 42.7°F5.9°C 39.0°F3.9°C 87% 7.0 mph WSW11.3 kmh WSW -- 30.10 in1019.3 mb 0.00 in0.0 mm 0.00 in0.0 mm 0.00 in0.0 mm
06:40 AM 42.7°F5.9°C 39.0°F3.9°C 87% 4.0 mph SSW6.4 kmh SSW -- 30.10 in1019.3 mb 0.00 in0.0 mm 0.00 in0.0 mm 0.00 in0.0 mm
06:45 AM 42.7°F5.9°C 39.0°F3.9°C 87% 6.0 mph NNW9.7 kmh NNW 13.0 mph20.9 kmh 30.10 in1019.3 mb 0.00 in0.0 mm 0.00 in0.0 mm 0.00 in0.0 mm
06:50 AM 42.7°F5.9°C 39.0°F3.9°C 87% 2.0 mph WNW3.2 kmh WNW -- 30.10 in1019.3 mb 0.00 in0.0 mm 0.00 in0.0 mm 0.00 in0.0 mm
06:55 AM 42.7°F5.9°C 39.0°F3.9°C 87% 3.0 mph WSW4.8 kmh WSW -- 30.10 in1019.3 mb 0.00 in0.0 mm 0.00 in0.0 mm 0.00 in0.0 mm
07:00 AM 42.7°F5.9°C 39.0°F3.9°C 87% 2.0 mph NE3.2 kmh NE -- 30.10 in1019.3 mb 0.00 in0.0 mm 0.00 in0.0 mm 0.00 in0.0 mm
07:05 AM 42.7°F5.9°C 39.0°F3.9°C 87% Calm Calm -- 30.10 in1019.3 mb 0.00 in0.0 mm 0.00 in0.0 mm 0.00 in0.0 mm
07:10 AM 42.7°F5.9°C 39.0°F3.9°C 87% 8.0 mph WSW12.9 kmh WSW 11.0 mph17.7 kmh 30.10 in1019.3 mb 0.00 in0.0 mm 0.00 in0.0 mm 0.00 in0.0 mm
07:15 AM 42.7°F5.9°C 39.0°F3.9°C 87% 3.0 mph WSW4.8 kmh WSW -- 30.10 in1019.3 mb 0.00 in0.0 mm 0.00 in0.0 mm 0.00 in0.0 mm
07:20 AM 42.6°F5.9°C 39.0°F3.9°C 87% Calm Calm -- 30.10 in1019.3 mb 0.00 in0.0 mm 0.00 in0.0 mm 0.00 in0.0 mm
07:25 AM 42.5°F5.8°C 38.8°F3.8°C 87% 6.0 mph NNW9.7 kmh NNW -- 30.10 in1019.3 mb 0.01 in0.3 mm 0.12 in3.0 mm 0.01 in0.3 mm
07:30 AM 42.7°F5.9°C 39.4°F4.1°C 88% 1.0 mph E1.6 kmh E -- 30.11 in1019.6 mb 0.01 in0.3 mm 0.00 in0.0 mm 0.01 in0.3 mm
07:35 AM 42.6°F5.9°C 39.0°F3.9°C 87% 1.0 mph NNW1.6 kmh NNW 12.0 mph19.3 kmh 30.10 in1019.3 mb 0.02 in0.5 mm 0.12 in3.0 mm 0.02 in0.5 mm
07:40 AM 42.4°F5.8°C 38.8°F3.8°C 87% 5.0 mph W8.0 kmh W -- 30.10 in1019.3 mb 0.02 in0.5 mm 0.00 in0.0 mm 0.02 in0.5 mm
07:45 AM 42.4°F5.8°C 38.8°F3.8°C 87% 7.0 mph WSW11.3 kmh WSW -- 30.10 in1019.3 mb 0.02 in0.5 mm 0.00 in0.0 mm 0.02 in0.5 mm
07:50 AM 42.3°F5.7°C 38.7°F3.7°C 87% Calm Calm -- 30.10 in1019.3 mb 0.03 in0.8 mm 0.12 in3.0 mm 0.03 in0.8 mm
07:55 AM 42.2°F5.7°C 38.7°F3.7°C 87% 5.0 mph S8.0 kmh S -- 30.10 in1019.3 mb 0.03 in0.8 mm 0.00 in0.0 mm 0.03 in0.8 mm
08:00 AM 42.2°F5.7°C 39.0°F3.9°C 88% 8.0 mph W12.9 kmh W 10.0 mph16.1 kmh 30.10 in1019.3 mb 0.03 in0.8 mm 0.00 in0.0 mm 0.03 in0.8 mm
08:05 AM 42.0°F5.6°C 38.8°F3.8°C 88% 9.0 mph WSW14.5 kmh WSW -- 30.10 in1019.3 mb 0.04 in1.0 mm 0.12 in3.0 mm 0.04 in1.0 mm
08:10 AM 42.0°F5.6°C 39.0°F3.9°C 89% 7.0 mph WSW11.3 kmh WSW -- 30.10 in1019.3 mb 0.04 in1.0 mm 0.00 in0.0 mm 0.04 in1.0 mm
08:15 AM 41.8°F5.4°C 38.7°F3.7°C 89% 1.0 mph S1.6 kmh S -- 30.10 in1019.3 mb 0.05 in1.3 mm 0.12 in3.0 mm 0.05 in1.3 mm
08:20 AM 41.9°F5.5°C 38.8°F3.8°C 89% 5.0 mph NW8.0 kmh NW -- 30.10 in1019.3 mb 0.05 in1.3 mm 0.00 in0.0 mm 0.05 in1.3 mm
08:25 AM 41.8°F5.4°C 38.7°F3.7°C 89% 9.0 mph WSW14.5 kmh WSW 14.0 mph22.5 kmh 30.10 in1019.3 mb 0.04 in1.0 mm 0.00 in0.0 mm 0.05 in1.3 mm
08:30 AM 41.9°F5.5°C 38.8°F3.8°C 89% 2.0 mph SW3.2 kmh SW -- 30.10 in1019.3 mb 0.04 in1.0 mm 0.00 in0.0 mm 0.05 in1.3 mm
08:35 AM 41.9°F5.5°C 38.7°F3.7°C 88% 1.0 mph SSW1.6 kmh SSW -- 30.10 in1019.3 mb 0.03 in0.8 mm 0.00 in0.0 mm 0.05 in1.3 mm
08:40 AM 42.0°F5.6°C 38.8°F3.8°C 88% 3.0 mph WSW4.8 kmh WSW -- 30.09 in1019.0 mb 0.04 in1.0 mm 0.12 in3.0 mm 0.06 in1.5 mm
08:45 AM 42.0°F5.6°C 38.8°F3.8°C 88% 8.0 mph NW12.9 kmh NW -- 30.09 in1019.0 mb 0.04 in1.0 mm 0.00 in0.0 mm 0.06 in1.5 mm
08:50 AM 42.1°F5.6°C 38.8°F3.8°C 88% 5.0 mph WSW8.0 kmh WSW 17.0 mph27.4 kmh 30.09 in1019.0 mb 0.03 in0.8 mm 0.00 in0.0 mm 0.06 in1.5 mm
08:55 AM 42.1°F5.6°C 38.8°F3.8°C 88% 3.0 mph SW4.8 kmh SW -- 30.09 in1019.0 mb 0.03 in0.8 mm 0.00 in0.0 mm 0.06 in1.5 mm
09:00 AM 42.1°F5.6°C 38.8°F3.8°C 88% 3.0 mph WNW4.8 kmh WNW -- 30.09 in1019.0 mb 0.03 in0.8 mm 0.00 in0.0 mm 0.06 in1.5 mm
09:05 AM 42.2°F5.7°C 39.0°F3.9°C 88% 4.0 mph W6.4 kmh W -- 30.09 in1019.0 mb 0.03 in0.8 mm 0.00 in0.0 mm 0.07 in1.8 mm
09:10 AM 42.3°F5.7°C 39.2°F4.0°C 89% 5.0 mph WNW8.0 kmh WNW -- 30.09 in1019.0 mb 0.03 in0.8 mm 0.00 in0.0 mm 0.07 in1.8 mm
09:15 AM 42.2°F5.7°C 39.2°F4.0°C 89% 2.0 mph W3.2 kmh W 14.0 mph22.5 kmh 30.09 in1019.0 mb 0.02 in0.5 mm 0.00 in0.0 mm 0.07 in1.8 mm
09:20 AM 42.3°F5.7°C 39.2°F4.0°C 89% 8.0 mph WSW12.9 kmh WSW -- 30.09 in1019.0 mb 0.03 in0.8 mm 0.12 in3.0 mm 0.08 in2.0 mm
09:25 AM 42.3°F5.7°C 39.2°F4.0°C 89% 7.0 mph WNW11.3 kmh WNW -- 30.09 in1019.0 mb 0.03 in0.8 mm 0.00 in0.0 mm 0.08 in2.0 mm
09:30 AM 42.4°F5.8°C 39.4°F4.1°C 89% 3.0 mph SW4.8 kmh SW -- 30.09 in1019.0 mb 0.03 in0.8 mm 0.00 in0.0 mm 0.08 in2.0 mm
09:35 AM 42.5°F5.8°C 39.4°F4.1°C 89% 6.0 mph SW9.7 kmh SW -- 30.09 in1019.0 mb 0.03 in0.8 mm 0.00 in0.0 mm 0.08 in2.0 mm
09:40 AM 42.3°F5.7°C 39.0°F3.9°C 88% 2.0 mph W3.2 kmh W 14.0 mph22.5 kmh 30.08 in1018.6 mb 0.02 in0.5 mm 0.00 in0.0 mm 0.08 in2.0 mm
09:45 AM 42.1°F5.6°C 38.8°F3.8°C 88% 5.0 mph NE8.0 kmh NE -- 30.09 in1019.0 mb 0.02 in0.5 mm 0.00 in0.0 mm 0.08 in2.0 mm
09:50 AM 41.9°F5.5°C 38.7°F3.7°C 88% 10.0 mph NW16.1 kmh NW -- 30.09 in1019.0 mb 0.02 in0.5 mm 0.00 in0.0 mm 0.08 in2.0 mm
09:55 AM 41.9°F5.5°C 38.7°F3.7°C 88% 2.0 mph NE3.2 kmh NE -- 30.08 in1018.6 mb 0.02 in0.5 mm 0.00 in0.0 mm 0.08 in2.0 mm
10:00 AM 41.9°F5.5°C 38.7°F3.7°C 88% 6.0 mph N9.7 kmh N -- 30.09 in1019.0 mb 0.02 in0.5 mm 0.00 in0.0 mm 0.08 in2.0 mm
10:05 AM 41.9°F5.5°C 38.7°F3.7°C 88% 7.0 mph NNW11.3 kmh NNW 14.0 mph22.5 kmh 30.09 in1019.0 mb 0.02 in0.5 mm 0.00 in0.0 mm 0.08 in2.0 mm
10:10 AM 41.8°F5.4°C 38.5°F3.6°C 88% 5.0 mph NE8.0 kmh NE -- 30.09 in1019.0 mb 0.02 in0.5 mm 0.00 in0.0 mm 0.08 in2.0 mm
10:15 AM 41.7°F5.4°C 38.5°F3.6°C 88% 9.0 mph NNW14.5 kmh NNW -- 30.09 in1019.0 mb 0.01 in0.3 mm 0.00 in0.0 mm 0.08 in2.0 mm
10:20 AM 41.7°F5.4°C 38.5°F3.6°C 88% 9.0 mph NE14.5 kmh NE -- 30.09 in1019.0 mb 0.01 in0.3 mm 0.00 in0.0 mm 0.08 in2.0 mm
10:25 AM 41.6°F5.3°C 38.3°F3.5°C 88% 5.0 mph NE8.0 kmh NE -- 30.08 in1018.6 mb 0.01 in0.3 mm 0.00 in0.0 mm 0.08 in2.0 mm
10:30 AM 41.5°F5.3°C 37.9°F3.3°C 87% 6.0 mph NNE9.7 kmh NNE 16.0 mph25.7 kmh 30.08 in1018.6 mb 0.00 in0.0 mm 0.00 in0.0 mm 0.08 in2.0 mm
10:35 AM 41.5°F5.3°C 37.9°F3.3°C 87% 4.0 mph WNW6.4 kmh WNW -- 30.09 in1019.0 mb 0.00 in0.0 mm 0.00 in0.0 mm 0.08 in2.0 mm
10:40 AM 41.6°F5.3°C 37.9°F3.3°C 87% 3.0 mph NNE4.8 kmh NNE -- 30.08 in1018.6 mb 0.00 in0.0 mm 0.00 in0.0 mm 0.08 in2.0 mm
10:45 AM 41.5°F5.3°C 37.9°F3.3°C 87% 9.0 mph W14.5 kmh W -- 30.09 in1019.0 mb 0.00 in0.0 mm 0.00 in0.0 mm 0.08 in2.0 mm
10:50 AM 41.6°F5.3°C 37.9°F3.3°C 87% 3.0 mph WNW4.8 kmh WNW -- 30.08 in1018.6 mb 0.00 in0.0 mm 0.00 in0.0 mm 0.08 in2.0 mm
10:55 AM 41.4°F5.2°C 38.1°F3.4°C 88% 14.0 mph W22.5 kmh W 21.0 mph33.8 kmh 30.08 in1018.6 mb 0.00 in0.0 mm 0.00 in0.0 mm 0.08 in2.0 mm
11:00 AM 41.2°F5.1°C 37.9°F3.3°C 88% 9.0 mph NW14.5 kmh NW -- 30.08 in1018.6 mb 0.01 in0.3 mm 0.01 in0.3 mm 0.09 in2.3 mm
11:05 AM 41.1°F5.1°C 37.9°F3.3°C 88% 9.0 mph WSW14.5 kmh WSW -- 30.08 in1018.6 mb 0.01 in0.3 mm 0.00 in0.0 mm 0.09 in2.3 mm
11:10 AM 41.1°F5.1°C 38.1°F3.4°C 89% 5.0 mph NW8.0 kmh NW -- 30.07 in1018.3 mb 0.01 in0.3 mm 0.00 in0.0 mm 0.09 in2.3 mm
11:15 AM 41.1°F5.1°C 38.1°F3.4°C 89% 4.0 mph NW6.4 kmh NW -- 30.07 in1018.3 mb 0.01 in0.3 mm 0.00 in0.0 mm 0.09 in2.3 mm
11:20 AM 41.0°F5.0°C 37.9°F3.3°C 89% 2.0 mph NW3.2 kmh NW 18.0 mph29.0 kmh 30.07 in1018.3 mb 0.01 in0.3 mm 0.00 in0.0 mm 0.09 in2.3 mm
11:25 AM 41.0°F5.0°C 37.9°F3.3°C 89% 6.0 mph WNW9.7 kmh WNW -- 30.07 in1018.3 mb 0.01 in0.3 mm 0.00 in0.0 mm 0.09 in2.3 mm
11:30 AM 40.9°F4.9°C 37.8°F3.2°C 89% 3.0 mph WSW4.8 kmh WSW -- 30.07 in1018.3 mb 0.01 in0.3 mm 0.00 in0.0 mm 0.09 in2.3 mm
11:35 AM 40.9°F4.9°C 37.8°F3.2°C 89% 9.0 mph WSW14.5 kmh WSW -- 30.07 in1018.3 mb 0.02 in0.5 mm 0.12 in3.0 mm 0.09 in2.3 mm
11:40 AM 40.8°F4.9°C 37.8°F3.2°C 89% 7.0 mph SW11.3 kmh SW -- 30.07 in1018.3 mb 0.02 in0.5 mm 0.00 in0.0 mm 0.09 in2.3 mm
11:45 AM 40.7°F4.8°C 37.6°F3.1°C 89% 10.0 mph W16.1 kmh W 25.0 mph40.2 kmh 30.08 in1018.6 mb 0.02 in0.5 mm 0.00 in0.0 mm 0.09 in2.3 mm
11:50 AM 40.7°F4.8°C 37.6°F3.1°C 89% 5.0 mph NNW8.0 kmh NNW -- 30.07 in1018.3 mb 0.02 in0.5 mm 0.00 in0.0 mm 0.09 in2.3 mm
11:55 AM 40.6°F4.8°C 37.6°F3.1°C 89% 6.0 mph NW9.7 kmh NW -- 30.07 in1018.3 mb 0.02 in0.5 mm 0.00 in0.0 mm 0.09 in2.3 mm
12:00 PM 40.6°F4.8°C 37.6°F3.1°C 89% 4.0 mph N6.4 kmh N -- 30.07 in1018.3 mb 0.01 in0.3 mm 0.00 in0.0 mm 0.09 in2.3 mm
12:05 PM 40.5°F4.7°C 37.4°F3.0°C 89% 2.0 mph NW3.2 kmh NW -- 30.08 in1018.6 mb 0.02 in0.5 mm 0.12 in3.0 mm 0.10 in2.5 mm
12:10 PM 40.3°F4.6°C 37.2°F2.9°C 89% 3.0 mph WSW4.8 kmh WSW 19.0 mph30.6 kmh 30.08 in1018.6 mb 0.02 in0.5 mm 0.00 in0.0 mm 0.11 in2.8 mm
12:15 PM 40.2°F4.6°C 37.2°F2.9°C 89% 5.0 mph NNW8.0 kmh NNW -- 30.08 in1018.6 mb 0.02 in0.5 mm 0.00 in0.0 mm 0.11 in2.8 mm
12:20 PM 40.2°F4.6°C 37.2°F2.9°C 89% 7.0 mph SW11.3 kmh SW -- 30.08 in1018.6 mb 0.03 in0.8 mm 0.12 in3.0 mm 0.12 in3.0 mm
12:25 PM 40.1°F4.5°C 37.0°F2.8°C 89% 6.0 mph S9.7 kmh S -- 30.07 in1018.3 mb 0.04 in1.0 mm 0.12 in3.0 mm 0.13 in3.3 mm
12:30 PM 40.0°F4.4°C 36.9°F2.7°C 89% 6.0 mph S9.7 kmh S -- 30.08 in1018.6 mb 0.05 in1.3 mm 0.12 in3.0 mm 0.13 in3.3 mm
12:35 PM 39.8°F4.3°C 36.7°F2.6°C 89% 4.0 mph W6.4 kmh W 28.0 mph45.1 kmh 30.08 in1018.6 mb 0.05 in1.3 mm 0.00 in0.0 mm 0.14 in3.6 mm
12:40 PM 39.8°F4.3°C 36.7°F2.6°C 89% 4.0 mph SW6.4 kmh SW -- 30.08 in1018.6 mb 0.05 in1.3 mm 0.00 in0.0 mm 0.14 in3.6 mm
12:45 PM 39.8°F4.3°C 36.7°F2.6°C 89% 7.0 mph WNW11.3 kmh WNW -- 30.08 in1018.6 mb 0.06 in1.5 mm 0.12 in3.0 mm 0.16 in4.1 mm
12:50 PM 39.6°F4.2°C 36.7°F2.6°C 89% 10.0 mph NNW16.1 kmh NNW -- 30.08 in1018.6 mb 0.07 in1.8 mm 0.12 in3.0 mm 0.17 in4.3 mm
12:55 PM 39.6°F4.2°C 36.7°F2.6°C 89% 11.0 mph NE17.7 kmh NE -- 30.08 in1018.6 mb 0.08 in2.0 mm 0.12 in3.0 mm 0.17 in4.3 mm
01:00 PM 39.5°F4.2°C 36.7°F2.6°C 89% 7.0 mph W11.3 kmh W 16.0 mph25.7 kmh 30.08 in1018.6 mb 0.09 in2.3 mm 0.01 in0.3 mm 0.18 in4.6 mm
01:05 PM 39.5°F4.2°C 36.7°F2.6°C 89% 15.0 mph WNW24.1 kmh WNW -- 30.08 in1018.6 mb 0.09 in2.3 mm 0.00 in0.0 mm 0.20 in5.1 mm
01:10 PM 39.4°F4.1°C 36.7°F2.6°C 90% 6.0 mph S9.7 kmh S -- 30.08 in1018.6 mb 0.09 in2.3 mm 0.00 in0.0 mm 0.20 in5.1 mm
01:15 PM 39.3°F4.1°C 36.5°F2.5°C 89% 9.0 mph WSW14.5 kmh WSW -- 30.09 in1019.0 mb 0.09 in2.3 mm 0.00 in0.0 mm 0.20 in5.1 mm
01:20 PM 39.1°F3.9°C 36.1°F2.3°C 89% 6.0 mph W9.7 kmh W -- 30.09 in1019.0 mb 0.09 in2.3 mm 0.00 in0.0 mm 0.20 in5.1 mm
01:25 PM 39.1°F3.9°C 36.1°F2.3°C 89% 6.0 mph WSW9.7 kmh WSW 13.0 mph20.9 kmh 30.09 in1019.0 mb 0.09 in2.3 mm 0.00 in0.0 mm 0.21 in5.3 mm
01:30 PM 39.0°F3.9°C 36.3°F2.4°C 90% 2.0 mph WSW3.2 kmh WSW -- 30.09 in1019.0 mb 0.08 in2.0 mm 0.00 in0.0 mm 0.21 in5.3 mm
01:35 PM 38.9°F3.8°C 36.0°F2.2°C 89% 6.0 mph NW9.7 kmh NW -- 30.09 in1019.0 mb 0.08 in2.0 mm 0.00 in0.0 mm 0.22 in5.6 mm
01:40 PM 38.9°F3.8°C 36.1°F2.3°C 90% 3.0 mph W4.8 kmh W -- 30.09 in1019.0 mb 0.08 in2.0 mm 0.00 in0.0 mm 0.22 in5.6 mm
01:45 PM 38.7°F3.7°C 36.0°F2.2°C 90% 2.0 mph SSW3.2 kmh SSW -- 30.09 in1019.0 mb 0.06 in1.5 mm 0.00 in0.0 mm 0.22 in5.6 mm
01:50 PM 38.7°F3.7°C 35.8°F2.1°C 89% 3.0 mph SW4.8 kmh SW 11.0 mph17.7 kmh 30.09 in1019.0 mb 0.06 in1.5 mm 0.00 in0.0 mm 0.22 in5.6 mm
01:55 PM 38.6°F3.7°C 36.0°F2.2°C 90% 4.0 mph SSW6.4 kmh SSW -- 30.09 in1019.0 mb 0.06 in1.5 mm 0.00 in0.0 mm 0.23 in5.8 mm
02:00 PM 38.5°F3.6°C 35.8°F2.1°C 90% 8.0 mph NW12.9 kmh NW -- 30.09 in1019.0 mb 0.05 in1.3 mm 0.00 in0.0 mm 0.23 in5.8 mm
02:05 PM 38.4°F3.6°C 35.8°F2.1°C 90% 3.0 mph WSW4.8 kmh WSW -- 30.09 in1019.0 mb 0.05 in1.3 mm 0.00 in0.0 mm 0.24 in6.1 mm
02:10 PM 38.4°F3.6°C 35.8°F2.1°C 90% 2.0 mph NW3.2 kmh NW -- 30.09 in1019.0 mb 0.03 in0.8 mm 0.00 in0.0 mm 0.24 in6.1 mm
02:15 PM 38.4°F3.6°C 35.8°F2.1°C 90% 9.0 mph WSW14.5 kmh WSW 11.0 mph17.7 kmh 30.09 in1019.0 mb 0.03 in0.8 mm 0.00 in0.0 mm 0.24 in6.1 mm
02:20 PM 38.2°F3.4°C 35.4°F1.9°C 90% 2.0 mph S3.2 kmh S -- 30.09 in1019.0 mb 0.04 in1.0 mm 0.12 in3.0 mm 0.24 in6.1 mm
02:25 PM 38.1°F3.4°C 35.4°F1.9°C 90% 8.0 mph WSW12.9 kmh WSW -- 30.09 in1019.0 mb 0.04 in1.0 mm 0.00 in0.0 mm 0.25 in6.4 mm
02:30 PM 38.1°F3.4°C 35.4°F1.9°C 90% 9.0 mph NW14.5 kmh NW -- 30.09 in1019.0 mb 0.05 in1.3 mm 0.12 in3.0 mm 0.26 in6.6 mm
02:35 PM 38.0°F3.3°C 35.2°F1.8°C 90% 2.0 mph W3.2 kmh W -- 30.09 in1019.0 mb 0.04 in1.0 mm 0.00 in0.0 mm 0.26 in6.6 mm
02:40 PM 38.0°F3.3°C 35.2°F1.8°C 90% 2.0 mph WNW3.2 kmh WNW 16.0 mph25.7 kmh 30.09 in1019.0 mb 0.05 in1.3 mm 0.12 in3.0 mm 0.27 in6.9 mm
02:45 PM 38.0°F3.3°C 35.2°F1.8°C 90% 8.0 mph S12.9 kmh S -- 30.09 in1019.0 mb 0.05 in1.3 mm 0.00 in0.0 mm 0.27 in6.9 mm
02:50 PM 37.9°F3.3°C 35.2°F1.8°C 90% 4.0 mph E6.4 kmh E -- 30.09 in1019.0 mb 0.06 in1.5 mm 0.12 in3.0 mm 0.28 in7.1 mm
02:55 PM 37.9°F3.3°C 35.2°F1.8°C 90% 8.0 mph WSW12.9 kmh WSW -- 30.09 in1019.0 mb 0.06 in1.5 mm 0.00 in0.0 mm 0.28 in7.1 mm
03:00 PM 37.9°F3.3°C 35.2°F1.8°C 90% 4.0 mph NE6.4 kmh NE -- 30.09 in1019.0 mb 0.06 in1.5 mm 0.00 in0.0 mm 0.28 in7.1 mm
03:05 PM 37.7°F3.2°C 35.1°F1.7°C 90% 2.0 mph S3.2 kmh S 18.0 mph29.0 kmh 30.09 in1019.0 mb 0.05 in1.3 mm 0.00 in0.0 mm 0.28 in7.1 mm
03:10 PM 37.7°F3.2°C 35.1°F1.7°C 90% 3.0 mph W4.8 kmh W -- 30.09 in1019.0 mb 0.06 in1.5 mm 0.12 in3.0 mm 0.29 in7.4 mm
03:15 PM 37.7°F3.2°C 35.1°F1.7°C 90% Calm Calm -- 30.09 in1019.0 mb 0.06 in1.5 mm 0.00 in0.0 mm 0.30 in7.6 mm
03:20 PM 37.7°F3.2°C 35.1°F1.7°C 90% 2.0 mph WSW3.2 kmh WSW -- 30.09 in1019.0 mb 0.06 in1.5 mm 0.00 in0.0 mm 0.30 in7.6 mm
03:25 PM 37.6°F3.1°C 34.9°F1.6°C 90% 2.0 mph E3.2 kmh E -- 30.09 in1019.0 mb 0.05 in1.3 mm 0.00 in0.0 mm 0.30 in7.6 mm
03:30 PM 37.6°F3.1°C 34.9°F1.6°C 90% 4.0 mph NE6.4 kmh NE 13.0 mph20.9 kmh 30.10 in1019.3 mb 0.04 in1.0 mm 0.00 in0.0 mm 0.30 in7.6 mm
03:35 PM 37.6°F3.1°C 34.9°F1.6°C 90% 8.0 mph N12.9 kmh N -- 30.10 in1019.3 mb 0.05 in1.3 mm 0.12 in3.0 mm 0.31 in7.9 mm
03:40 PM 37.5°F3.1°C 34.9°F1.6°C 90% 1.0 mph WNW1.6 kmh WNW -- 30.10 in1019.3 mb 0.04 in1.0 mm 0.00 in0.0 mm 0.31 in7.9 mm
03:45 PM 37.5°F3.1°C 34.9°F1.6°C 90% 1.0 mph N1.6 kmh N -- 30.09 in1019.0 mb 0.05 in1.3 mm 0.12 in3.0 mm 0.31 in7.9 mm
03:50 PM 37.4°F3.0°C 34.7°F1.5°C 90% 1.0 mph S1.6 kmh S -- 30.10 in1019.3 mb 0.04 in1.0 mm 0.00 in0.0 mm 0.31 in7.9 mm
03:55 PM 37.5°F3.1°C 34.9°F1.6°C 90% 3.0 mph NE4.8 kmh NE 13.0 mph20.9 kmh 30.10 in1019.3 mb 0.03 in0.8 mm 0.00 in0.0 mm 0.31 in7.9 mm
04:00 PM 37.5°F3.1°C 34.9°F1.6°C 90% 12.0 mph W19.3 kmh W -- 30.10 in1019.3 mb 0.04 in1.0 mm 0.01 in0.3 mm 0.32 in8.1 mm
04:05 PM 37.4°F3.0°C 34.7°F1.5°C 90% 6.0 mph NW9.7 kmh NW -- 30.10 in1019.3 mb 0.04 in1.0 mm 0.00 in0.0 mm 0.32 in8.1 mm
04:10 PM 37.4°F3.0°C 34.7°F1.5°C 90% 2.0 mph NW3.2 kmh NW -- 30.10 in1019.3 mb 0.03 in0.8 mm 0.00 in0.0 mm 0.32 in8.1 mm
04:15 PM 37.3°F2.9°C 34.5°F1.4°C 90% 3.0 mph NW4.8 kmh NW -- 30.10 in1019.3 mb 0.03 in0.8 mm 0.00 in0.0 mm 0.33 in8.4 mm
04:20 PM 37.2°F2.9°C 34.5°F1.4°C 90% 5.0 mph NNW8.0 kmh NNW 20.0 mph32.2 kmh 30.10 in1019.3 mb 0.03 in0.8 mm 0.00 in0.0 mm 0.33 in8.4 mm
04:25 PM 37.2°F2.9°C 34.5°F1.4°C 90% 7.0 mph NW11.3 kmh NW -- 30.10 in1019.3 mb 0.04 in1.0 mm 0.12 in3.0 mm 0.34 in8.6 mm
04:30 PM 37.2°F2.9°C 34.5°F1.4°C 90% 16.0 mph WNW25.7 kmh WNW -- 30.11 in1019.6 mb 0.04 in1.0 mm 0.00 in0.0 mm 0.34 in8.6 mm
04:35 PM 37.3°F2.9°C 34.5°F1.4°C 90% 5.0 mph W8.0 kmh W -- 30.10 in1019.3 mb 0.03 in0.8 mm 0.00 in0.0 mm 0.34 in8.6 mm
04:40 PM 37.2°F2.9°C 34.5°F1.4°C 90% 6.0 mph WNW9.7 kmh WNW -- 30.10 in1019.3 mb 0.03 in0.8 mm 0.00 in0.0 mm 0.34 in8.6 mm
04:45 PM 37.1°F2.8°C 34.3°F1.3°C 90% 4.0 mph WSW6.4 kmh WSW 16.0 mph25.7 kmh 30.10 in1019.3 mb 0.03 in0.8 mm 0.00 in0.0 mm 0.35 in8.9 mm
04:50 PM 37.1°F2.8°C 34.3°F1.3°C 90% 20.0 mph W32.2 kmh W -- 30.10 in1019.3 mb 0.03 in0.8 mm 0.00 in0.0 mm 0.35 in8.9 mm
04:55 PM 37.0°F2.8°C 34.7°F1.5°C 91% 3.0 mph SW4.8 kmh SW -- 30.10 in1019.3 mb 0.03 in0.8 mm 0.00 in0.0 mm 0.35 in8.9 mm
05:00 PM 37.1°F2.8°C 34.7°F1.5°C 91% 7.0 mph W11.3 kmh W -- 30.10 in1019.3 mb 0.02 in0.5 mm 0.00 in0.0 mm 0.35 in8.9 mm
05:05 PM 37.0°F2.8°C 34.7°F1.5°C 91% 3.0 mph NW4.8 kmh NW -- 30.10 in1019.3 mb 0.02 in0.5 mm 0.00 in0.0 mm 0.35 in8.9 mm
05:10 PM 37.1°F2.8°C 34.7°F1.5°C 91% 2.0 mph SE3.2 kmh SE 13.0 mph20.9 kmh 30.10 in1019.3 mb 0.03 in0.8 mm 0.12 in3.0 mm 0.35 in8.9 mm
05:15 PM 37.1°F2.8°C 34.7°F1.5°C 91% 3.0 mph SW4.8 kmh SW -- 30.10 in1019.3 mb 0.02 in0.5 mm 0.00 in0.0 mm 0.35 in8.9 mm
05:20 PM 37.2°F2.9°C 34.9°F1.6°C 91% 7.0 mph WSW11.3 kmh WSW -- 30.10 in1019.3 mb 0.02 in0.5 mm 0.00 in0.0 mm 0.35 in8.9 mm
05:25 PM 37.3°F2.9°C 34.9°F1.6°C 91% 4.0 mph NW6.4 kmh NW -- 30.10 in1019.3 mb 0.02 in0.5 mm 0.00 in0.0 mm 0.36 in9.1 mm
05:30 PM 37.4°F3.0°C 34.7°F1.5°C 90% 3.0 mph NW4.8 kmh NW -- 30.10 in1019.3 mb 0.02 in0.5 mm 0.00 in0.0 mm 0.36 in9.1 mm
05:35 PM 37.4°F3.0°C 34.7°F1.5°C 90% 7.0 mph W11.3 kmh W 17.0 mph27.4 kmh 30.10 in1019.3 mb 0.02 in0.5 mm 0.00 in0.0 mm 0.36 in9.1 mm
05:40 PM 37.5°F3.1°C 34.9°F1.6°C 90% 9.0 mph NW14.5 kmh NW -- 30.10 in1019.3 mb 0.03 in0.8 mm 0.12 in3.0 mm 0.37 in9.4 mm
05:45 PM 37.6°F3.1°C 34.9°F1.6°C 90% 6.0 mph NW9.7 kmh NW -- 30.10 in1019.3 mb 0.02 in0.5 mm 0.00 in0.0 mm 0.37 in9.4 mm
05:50 PM 37.5°F3.1°C 34.9°F1.6°C 90% 6.0 mph NW9.7 kmh NW -- 30.10 in1019.3 mb 0.03 in0.8 mm 0.12 in3.0 mm 0.38 in9.7 mm
05:55 PM 37.7°F3.2°C 35.1°F1.7°C 90% 9.0 mph W14.5 kmh W -- 30.09 in1019.0 mb 0.03 in0.8 mm 0.00 in0.0 mm 0.38 in9.7 mm
06:00 PM 37.7°F3.2°C 35.1°F1.7°C 90% 7.0 mph NW11.3 kmh NW 16.0 mph25.7 kmh 30.09 in1019.0 mb 0.03 in0.8 mm 0.00 in0.0 mm 0.38 in9.7 mm
06:05 PM 37.7°F3.2°C 35.1°F1.7°C 90% 6.0 mph SW9.7 kmh SW -- 30.09 in1019.0 mb 0.03 in0.8 mm 0.00 in0.0 mm 0.38 in9.7 mm
06:10 PM 37.6°F3.1°C 34.9°F1.6°C 90% 11.0 mph NNW17.7 kmh NNW -- 30.09 in1019.0 mb 0.03 in0.8 mm 0.00 in0.0 mm 0.39 in9.9 mm
06:15 PM 37.6°F3.1°C 34.9°F1.6°C 90% 5.0 mph W8.0 kmh W -- 30.09 in1019.0 mb 0.03 in0.8 mm 0.00 in0.0 mm 0.39 in9.9 mm
06:20 PM 37.5°F3.1°C 34.9°F1.6°C 90% 7.0 mph SSW11.3 kmh SSW -- 30.09 in1019.0 mb 0.04 in1.0 mm 0.12 in3.0 mm 0.39 in9.9 mm
06:25 PM 37.5°F3.1°C 34.9°F1.6°C 90% 7.0 mph W11.3 kmh W 17.0 mph27.4 kmh 30.09 in1019.0 mb 0.03 in0.8 mm 0.00 in0.0 mm 0.39 in9.9 mm
06:30 PM 37.4°F3.0°C 34.7°F1.5°C 90% 2.0 mph NW3.2 kmh NW -- 30.09 in1019.0 mb 0.04 in1.0 mm 0.12 in3.0 mm 0.40 in10.2 mm
06:35 PM 37.4°F3.0°C 34.7°F1.5°C 90% 2.0 mph NW3.2 kmh NW -- 30.09 in1019.0 mb 0.04 in1.0 mm 0.00 in0.0 mm 0.40 in10.2 mm
06:40 PM 37.3°F2.9°C 34.5°F1.4°C 90% 2.0 mph NW3.2 kmh NW -- 30.09 in1019.0 mb 0.04 in1.0 mm 0.00 in0.0 mm 0.41 in10.4 mm
06:45 PM 37.2°F2.9°C 34.5°F1.4°C 90% 6.0 mph WSW9.7 kmh WSW -- 30.09 in1019.0 mb 0.04 in1.0 mm 0.00 in0.0 mm 0.41 in10.4 mm
06:50 PM 37.2°F2.9°C 34.5°F1.4°C 90% 7.0 mph SE11.3 kmh SE 17.0 mph27.4 kmh 30.09 in1019.0 mb 0.04 in1.0 mm 0.00 in0.0 mm 0.42 in10.7 mm
06:55 PM 37.2°F2.9°C 34.5°F1.4°C 90% 5.0 mph SW8.0 kmh SW -- 30.10 in1019.3 mb 0.05 in1.3 mm 0.12 in3.0 mm 0.43 in10.9 mm
07:00 PM 37.2°F2.9°C 34.9°F1.6°C 91% 2.0 mph ENE3.2 kmh ENE -- 30.09 in1019.0 mb 0.05 in1.3 mm 0.00 in0.0 mm 0.43 in10.9 mm
07:05 PM 37.2°F2.9°C 34.5°F1.4°C 90% 3.0 mph WSW4.8 kmh WSW -- 30.09 in1019.0 mb 0.06 in1.5 mm 0.12 in3.0 mm 0.43 in10.9 mm
07:10 PM 37.2°F2.9°C 34.9°F1.6°C 91% 7.0 mph SW11.3 kmh SW -- 30.09 in1019.0 mb 0.05 in1.3 mm 0.00 in0.0 mm 0.43 in10.9 mm
07:15 PM 37.3°F2.9°C 34.9°F1.6°C 91% 5.0 mph NW8.0 kmh NW 12.0 mph19.3 kmh 30.09 in1019.0 mb 0.06 in1.5 mm 0.12 in3.0 mm 0.44 in11.2 mm
07:20 PM 37.3°F2.9°C 34.9°F1.6°C 91% 12.0 mph NW19.3 kmh NW -- 30.09 in1019.0 mb 0.06 in1.5 mm 0.00 in0.0 mm 0.45 in11.4 mm
07:25 PM 37.5°F3.1°C 35.2°F1.8°C 91% 4.0 mph N6.4 kmh N -- 30.09 in1019.0 mb 0.06 in1.5 mm 0.00 in0.0 mm 0.45 in11.4 mm
07:30 PM 37.6°F3.1°C 35.2°F1.8°C 91% 13.0 mph WSW20.9 kmh WSW -- 30.09 in1019.0 mb 0.06 in1.5 mm 0.00 in0.0 mm 0.46 in11.7 mm
07:35 PM 37.7°F3.2°C 35.4°F1.9°C 91% 11.0 mph WNW17.7 kmh WNW -- 30.09 in1019.0 mb 0.06 in1.5 mm 0.00 in0.0 mm 0.46 in11.7 mm
07:40 PM 37.8°F3.2°C 35.1°F1.7°C 90% 8.0 mph W12.9 kmh W 17.0 mph27.4 kmh 30.09 in1019.0 mb 0.05 in1.3 mm 0.00 in0.0 mm 0.46 in11.7 mm
07:45 PM 37.9°F3.3°C 35.2°F1.8°C 90% 8.0 mph W12.9 kmh W -- 30.09 in1019.0 mb 0.05 in1.3 mm 0.00 in0.0 mm 0.46 in11.7 mm
07:50 PM 37.9°F3.3°C 35.2°F1.8°C 90% 4.0 mph SE6.4 kmh SE -- 30.09 in1019.0 mb 0.05 in1.3 mm 0.00 in0.0 mm 0.46 in11.7 mm
07:55 PM 37.9°F3.3°C 35.2°F1.8°C 90% 8.0 mph WNW12.9 kmh WNW -- 30.09 in1019.0 mb 0.04 in1.0 mm 0.00 in0.0 mm 0.46 in11.7 mm
08:00 PM 37.9°F3.3°C 35.2°F1.8°C 90% 2.0 mph N3.2 kmh N -- 30.09 in1019.0 mb 0.05 in1.3 mm 0.01 in0.3 mm 0.47 in11.9 mm
08:05 PM 37.9°F3.3°C 35.2°F1.8°C 90% 6.0 mph NW9.7 kmh NW 18.0 mph29.0 kmh 30.09 in1019.0 mb 0.04 in1.0 mm 0.00 in0.0 mm 0.47 in11.9 mm
08:10 PM 37.9°F3.3°C 35.2°F1.8°C 90% 7.0 mph W11.3 kmh W -- 30.09 in1019.0 mb 0.04 in1.0 mm 0.00 in0.0 mm 0.47 in11.9 mm
08:15 PM 37.8°F3.2°C 35.1°F1.7°C 90% Calm Calm -- 30.09 in1019.0 mb 0.03 in0.8 mm 0.00 in0.0 mm 0.47 in11.9 mm
08:20 PM 37.8°F3.2°C 35.1°F1.7°C 90% 5.0 mph W8.0 kmh W -- 30.09 in1019.0 mb 0.04 in1.0 mm 0.12 in3.0 mm 0.48 in12.2 mm
08:25 PM 37.8°F3.2°C 35.1°F1.7°C 90% 5.0 mph WNW8.0 kmh WNW -- 30.09 in1019.0 mb 0.03 in0.8 mm 0.00 in0.0 mm 0.48 in12.2 mm
08:30 PM 37.9°F3.3°C 35.2°F1.8°C 90% 5.0 mph WSW8.0 kmh WSW 12.0 mph19.3 kmh 30.09 in1019.0 mb 0.03 in0.8 mm 0.00 in0.0 mm 0.49 in12.4 mm
08:35 PM 37.9°F3.3°C 35.2°F1.8°C 90% 3.0 mph S4.8 kmh S -- 30.09 in1019.0 mb 0.03 in0.8 mm 0.00 in0.0 mm 0.49 in12.4 mm
08:40 PM 37.9°F3.3°C 35.2°F1.8°C 90% 3.0 mph SSW4.8 kmh SSW -- 30.09 in1019.0 mb 0.03 in0.8 mm 0.00 in0.0 mm 0.49 in12.4 mm
08:45 PM 38.0°F3.3°C 35.1°F1.7°C 89% 9.0 mph SW14.5 kmh SW -- 30.09 in1019.0 mb 0.03 in0.8 mm 0.00 in0.0 mm 0.49 in12.4 mm
08:50 PM 38.0°F3.3°C 35.1°F1.7°C 89% 3.0 mph NE4.8 kmh NE -- 30.09 in1019.0 mb 0.02 in0.5 mm 0.00 in0.0 mm 0.49 in12.4 mm
08:55 PM 38.0°F3.3°C 35.1°F1.7°C 89% 3.0 mph WNW4.8 kmh WNW 11.0 mph17.7 kmh 30.09 in1019.0 mb 0.02 in0.5 mm 0.00 in0.0 mm 0.49 in12.4 mm
09:00 PM 38.1°F3.4°C 35.2°F1.8°C 89% 1.0 mph WSW1.6 kmh WSW -- 30.09 in1019.0 mb 0.02 in0.5 mm 0.00 in0.0 mm 0.50 in12.7 mm
09:05 PM 38.1°F3.4°C 34.9°F1.6°C 88% 2.0 mph WNW3.2 kmh WNW -- 30.09 in1019.0 mb 0.02 in0.5 mm 0.00 in0.0 mm 0.50 in12.7 mm
09:10 PM 38.2°F3.4°C 34.9°F1.6°C 88% 4.0 mph W6.4 kmh W -- 30.09 in1019.0 mb 0.02 in0.5 mm 0.00 in0.0 mm 0.50 in12.7 mm
09:15 PM 38.2°F3.4°C 34.9°F1.6°C 88% 9.0 mph SW14.5 kmh SW -- 30.09 in1019.0 mb 0.03 in0.8 mm 0.12 in3.0 mm 0.50 in12.7 mm
09:20 PM 38.2°F3.4°C 34.9°F1.6°C 88% 4.0 mph WSW6.4 kmh WSW 11.0 mph17.7 kmh 30.09 in1019.0 mb 0.02 in0.5 mm 0.00 in0.0 mm 0.50 in12.7 mm
09:25 PM 38.2°F3.4°C 34.9°F1.6°C 88% 6.0 mph WSW9.7 kmh WSW -- 30.09 in1019.0 mb 0.02 in0.5 mm 0.00 in0.0 mm 0.50 in12.7 mm
09:30 PM 38.2°F3.4°C 34.9°F1.6°C 88% 6.0 mph SW9.7 kmh SW -- 30.09 in1019.0 mb 0.02 in0.5 mm 0.00 in0.0 mm 0.50 in12.7 mm
09:35 PM 38.2°F3.4°C 34.9°F1.6°C 88% 6.0 mph W9.7 kmh W -- 30.09 in1019.0 mb 0.02 in0.5 mm 0.00 in0.0 mm 0.50 in12.7 mm
09:40 PM 38.3°F3.5°C 35.1°F1.7°C 88% 1.0 mph WNW1.6 kmh WNW -- 30.10 in1019.3 mb 0.02 in0.5 mm 0.00 in0.0 mm 0.50 in12.7 mm
09:45 PM 38.3°F3.5°C 34.7°F1.5°C 87% 1.0 mph SW1.6 kmh SW 11.0 mph17.7 kmh 30.10 in1019.3 mb 0.02 in0.5 mm 0.00 in0.0 mm 0.50 in12.7 mm
09:50 PM 38.2°F3.4°C 34.5°F1.4°C 87% 9.0 mph W14.5 kmh W -- 30.10 in1019.3 mb 0.02 in0.5 mm 0.00 in0.0 mm 0.50 in12.7 mm
09:55 PM 38.2°F3.4°C 34.5°F1.4°C 87% 6.0 mph WSW9.7 kmh WSW -- 30.10 in1019.3 mb 0.02 in0.5 mm 0.00 in0.0 mm 0.50 in12.7 mm
10:00 PM 38.2°F3.4°C 34.9°F1.6°C 88% Calm Calm -- 30.10 in1019.3 mb 0.01 in0.3 mm 0.00 in0.0 mm 0.50 in12.7 mm
10:05 PM 38.3°F3.5°C 34.7°F1.5°C 87% 6.0 mph WSW9.7 kmh WSW -- 30.10 in1019.3 mb 0.02 in0.5 mm 0.12 in3.0 mm 0.51 in13.0 mm
10:10 PM 38.2°F3.4°C 34.5°F1.4°C 87% 3.0 mph SW4.8 kmh SW 14.0 mph22.5 kmh 30.10 in1019.3 mb 0.02 in0.5 mm 0.00 in0.0 mm 0.51 in13.0 mm
10:15 PM 37.9°F3.3°C 34.7°F1.5°C 88% 10.0 mph WSW16.1 kmh WSW -- 30.10 in1019.3 mb 0.02 in0.5 mm 0.00 in0.0 mm 0.52 in13.2 mm
10:20 PM 37.8°F3.2°C 34.5°F1.4°C 88% 2.0 mph W3.2 kmh W -- 30.10 in1019.3 mb 0.02 in0.5 mm 0.00 in0.0 mm 0.52 in13.2 mm
10:25 PM 37.7°F3.2°C 34.5°F1.4°C 88% 1.0 mph WSW1.6 kmh WSW -- 30.10 in1019.3 mb 0.02 in0.5 mm 0.00 in0.0 mm 0.52 in13.2 mm
10:30 PM 37.7°F3.2°C 34.9°F1.6°C 89% 3.0 mph SW4.8 kmh SW -- 30.10 in1019.3 mb 0.02 in0.5 mm 0.00 in0.0 mm 0.52 in13.2 mm
10:35 PM 37.6°F3.1°C 34.7°F1.5°C 89% 4.0 mph SSW6.4 kmh SSW 7.0 mph11.3 kmh 30.10 in1019.3 mb 0.02 in0.5 mm 0.00 in0.0 mm 0.53 in13.5 mm
10:40 PM 37.6°F3.1°C 34.7°F1.5°C 89% 1.0 mph SW1.6 kmh SW -- 30.10 in1019.3 mb 0.02 in0.5 mm 0.00 in0.0 mm 0.53 in13.5 mm
10:45 PM 37.5°F3.1°C 34.7°F1.5°C 89% 4.0 mph W6.4 kmh W -- 30.10 in1019.3 mb 0.03 in0.8 mm 0.12 in3.0 mm 0.54 in13.7 mm
10:50 PM 37.5°F3.1°C 34.7°F1.5°C 89% Calm Calm -- 30.10 in1019.3 mb 0.03 in0.8 mm 0.00 in0.0 mm 0.54 in13.7 mm
10:55 PM 37.5°F3.1°C 34.7°F1.5°C 89% Calm Calm -- 30.10 in1019.3 mb 0.03 in0.8 mm 0.00 in0.0 mm 0.54 in13.7 mm
11:00 PM 37.5°F3.1°C 34.7°F1.5°C 89% 6.0 mph SSW9.7 kmh SSW 6.0 mph9.7 kmh 30.10 in1019.3 mb 0.03 in0.8 mm 0.00 in0.0 mm 0.39 in9.9 mm
11:05 PM 37.5°F3.1°C 34.7°F1.5°C 89% 6.0 mph W9.7 kmh W -- 30.10 in1019.3 mb 0.02 in0.5 mm 0.00 in0.0 mm 0.39 in9.9 mm
11:10 PM 37.5°F3.1°C 34.7°F1.5°C 89% 3.0 mph WNW4.8 kmh WNW -- 30.10 in1019.3 mb 0.03 in0.8 mm 0.12 in3.0 mm 0.01 in0.3 mm
11:15 PM 37.5°F3.1°C 34.7°F1.5°C 89% 5.0 mph SSW8.0 kmh SSW -- 30.10 in1019.3 mb 0.02 in0.5 mm 0.00 in0.0 mm 0.01 in0.3 mm
11:20 PM 37.5°F3.1°C 34.7°F1.5°C 89% 4.0 mph SW6.4 kmh SW -- 30.10 in1019.3 mb 0.03 in0.8 mm 0.12 in3.0 mm 0.02 in0.5 mm
11:25 PM 37.5°F3.1°C 34.7°F1.5°C 89% 1.0 mph SE1.6 kmh SE 7.0 mph11.3 kmh 30.11 in1019.6 mb 0.03 in0.8 mm 0.00 in0.0 mm 0.02 in0.5 mm
11:30 PM 37.5°F3.1°C 34.7°F1.5°C 89% Calm Calm -- 30.10 in1019.3 mb 0.03 in0.8 mm 0.00 in0.0 mm 0.02 in0.5 mm
11:35 PM 37.5°F3.1°C 34.7°F1.5°C 89% 3.0 mph WSW4.8 kmh WSW -- 30.11 in1019.6 mb 0.02 in0.5 mm 0.00 in0.0 mm 0.02 in0.5 mm
11:40 PM 37.5°F3.1°C 34.7°F1.5°C 89% 1.0 mph NE1.6 kmh NE -- 30.11 in1019.6 mb 0.02 in0.5 mm 0.00 in0.0 mm 0.02 in0.5 mm
11:45 PM 37.6°F3.1°C 34.9°F1.6°C 90% 2.0 mph S3.2 kmh S -- 30.11 in1019.6 mb 0.02 in0.5 mm 0.00 in0.0 mm 0.02 in0.5 mm
11:50 PM 37.6°F3.1°C 34.7°F1.5°C 89% 5.0 mph WNW8.0 kmh WNW 6.0 mph9.7 kmh 30.11 in1019.6 mb 0.02 in0.5 mm 0.00 in0.0 mm 0.02 in0.5 mm
11:55 PM 37.6°F3.1°C 34.7°F1.5°C 89% 6.0 mph SW9.7 kmh SW -- 30.11 in1019.6 mb 0.02 in0.5 mm 0.00 in0.0 mm 0.02 in0.5 mm